Manta — WDJ4833 — position and weather

sailwx.info

Track history (hours):
 
Tides and Currents Weather Stations Pressure Air Temp Water Temp Dewpoint Dewpoint Depression Visibility Wind Speed Wind Dir Waves Ship Positions

Manta

Owner: Sutton, Alexander, Kirkland, WA. More information available from US FCC via Universal Licensing System and Coast Guard Vessel Documentation Center.

Last reported at 2017-Oct-08 18:02 UTC. Time now 2017-Oct-22 10:25 UTC.
Position N 48°25' W 122°48'.
Warning: this ship's position is 13 days out of date.

Length 17 m.

Type: Pleasure craft. MMSI: 367781580.

Date/timePositionNaut miles runAvg speedWind from/ knotsBaromVisibWave heightAir tempDewpointWater temp
2017-Oct-08 18:02N 48°25' W 122°48'0 7.2
2017-Oct-08 18:00N 48°25' W 122°48'4 7.2
2017-Oct-08 17:30N 48°25' W 122°54'4 7.5
2017-Oct-08 17:00N 48°28' W 122°57'4 8.7
2017-Oct-08 16:30N 48°32' W 122°58'2 2.9
2017-Oct-08 15:59N 48°32' W 123°00'0 0.0
2017-Oct-08 15:29N 48°32' W 123°00'0 0.0
2017-Oct-08 14:59N 48°32' W 123°00'0 0.0
2017-Oct-08 14:29N 48°32' W 123°00'0 0.0
2017-Oct-08 13:59N 48°32' W 123°00'0 0.0
2017-Oct-08 13:29N 48°32' W 123°00'0 0.0
2017-Oct-08 12:59N 48°32' W 123°00'0 0.0
2017-Oct-08 12:26N 48°32' W 123°00'0 0.0
2017-Oct-08 11:59N 48°32' W 123°00'0 0.0
2017-Oct-08 11:29N 48°32' W 123°00'0 0.0
2017-Oct-08 10:59N 48°32' W 123°00'0 0.0
2017-Oct-08 10:29N 48°32' W 123°00'0 0.0
2017-Oct-08 09:59N 48°32' W 123°00'0 0.0
2017-Oct-08 09:29N 48°32' W 123°00'0 0.0
2017-Oct-08 08:59N 48°32' W 123°00'0 0.0
2017-Oct-08 08:29N 48°32' W 123°00'0 0.0
2017-Oct-08 07:59N 48°32' W 123°00'0 0.0
2017-Oct-08 07:29N 48°32' W 123°00'0 0.0
2017-Oct-08 06:59N 48°32' W 123°00'0 0.0
2017-Oct-08 06:29N 48°32' W 123°00'0 0.0
2017-Oct-08 05:59N 48°32' W 123°00'0 0.0
2017-Oct-08 05:29N 48°32' W 123°00'0 0.0
2017-Oct-08 04:59N 48°32' W 123°00'0 0.0
2017-Oct-08 04:29N 48°32' W 123°00'0 0.0
2017-Oct-08 03:59N 48°32' W 123°00'0 0.0
2017-Oct-08 03:29N 48°32' W 123°00'0 0.0
2017-Oct-08 02:56N 48°32' W 123°00'0 0.0
2017-Oct-08 02:29N 48°32' W 123°00'0 0.0
2017-Oct-08 01:59N 48°32' W 123°00'0 0.0
2017-Oct-08 01:26N 48°32' W 123°00'0 0.0
2017-Oct-08 00:59N 48°32' W 123°00'0 0.0
2017-Oct-08 00:29N 48°32' W 123°00'0 0.0
2017-Oct-07 23:56N 48°32' W 123°00'0 0.0
2017-Oct-07 23:29N 48°32' W 123°00'0 0.0
2017-Oct-07 22:59N 48°32' W 123°00'0 0.0
2017-Oct-07 22:23N 48°32' W 123°00'0 0.0
2017-Oct-07 21:59N 48°32' W 123°00'0 0.0
2017-Oct-07 21:20N 48°32' W 123°00'0 0.0
2017-Oct-07 20:59N 48°32' W 123°00'0 0.0
2017-Oct-07 20:30N 48°32' W 123°00'2 4.8
2017-Oct-07 20:00N 48°33' W 122°57'3 6.8
2017-Oct-07 19:31N 48°34' W 122°52'4 7.7
2017-Oct-07 19:01N 48°32' W 122°48'4 8.7
2017-Oct-07 18:31N 48°29' W 122°42'  
Track history (hours):
 
Tides and Currents Weather Stations Pressure Air Temp Water Temp Dewpoint Dewpoint Depression Visibility Wind Speed Wind Dir Waves Ship Positions

Manta

Owner: Sutton, Alexander, Kirkland, WA. More information available from US FCC via Universal Licensing System and Coast Guard Vessel Documentation Center.

Last reported at 2017-Oct-08 18:02 UTC. Time now 2017-Oct-22 10:25 UTC.
Position N 48°25' W 122°48'.
Warning: this ship's position is 13 days out of date.

Length 17 m.

Type: Pleasure craft. MMSI: 367781580.

Date/timePositionNaut miles runAvg speedWind from/ knotsBaromVisibWave heightAir tempDewpointWater temp
2017-Oct-08 18:02N 48°25' W 122°48'0 7.2
2017-Oct-08 18:00N 48°25' W 122°48'4 7.2
2017-Oct-08 17:30N 48°25' W 122°54'4 7.5
2017-Oct-08 17:00N 48°28' W 122°57'4 8.7
2017-Oct-08 16:30N 48°32' W 122°58'2 2.9
2017-Oct-08 15:59N 48°32' W 123°00'0 0.0
2017-Oct-08 15:29N 48°32' W 123°00'0 0.0
2017-Oct-08 14:59N 48°32' W 123°00'0 0.0
2017-Oct-08 14:29N 48°32' W 123°00'0 0.0
2017-Oct-08 13:59N 48°32' W 123°00'0 0.0
2017-Oct-08 13:29N 48°32' W 123°00'0 0.0
2017-Oct-08 12:59N 48°32' W 123°00'0 0.0
2017-Oct-08 12:26N 48°32' W 123°00'0 0.0
2017-Oct-08 11:59N 48°32' W 123°00'0 0.0
2017-Oct-08 11:29N 48°32' W 123°00'0 0.0
2017-Oct-08 10:59N 48°32' W 123°00'0 0.0
2017-Oct-08 10:29N 48°32' W 123°00'0 0.0
2017-Oct-08 09:59N 48°32' W 123°00'0 0.0
2017-Oct-08 09:29N 48°32' W 123°00'0 0.0
2017-Oct-08 08:59N 48°32' W 123°00'0 0.0
2017-Oct-08 08:29N 48°32' W 123°00'0 0.0
2017-Oct-08 07:59N 48°32' W 123°00'0 0.0
2017-Oct-08 07:29N 48°32' W 123°00'0 0.0
2017-Oct-08 06:59N 48°32' W 123°00'0 0.0
2017-Oct-08 06:29N 48°32' W 123°00'0 0.0
2017-Oct-08 05:59N 48°32' W 123°00'0 0.0
2017-Oct-08 05:29N 48°32' W 123°00'0 0.0
2017-Oct-08 04:59N 48°32' W 123°00'0 0.0
2017-Oct-08 04:29N 48°32' W 123°00'0 0.0
2017-Oct-08 03:59N 48°32' W 123°00'0 0.0
2017-Oct-08 03:29N 48°32' W 123°00'0 0.0
2017-Oct-08 02:56N 48°32' W 123°00'0 0.0
2017-Oct-08 02:29N 48°32' W 123°00'0 0.0
2017-Oct-08 01:59N 48°32' W 123°00'0 0.0
2017-Oct-08 01:26N 48°32' W 123°00'0 0.0
2017-Oct-08 00:59N 48°32' W 123°00'0 0.0
2017-Oct-08 00:29N 48°32' W 123°00'0 0.0
2017-Oct-07 23:56N 48°32' W 123°00'0 0.0
2017-Oct-07 23:29N 48°32' W 123°00'0 0.0
2017-Oct-07 22:59N 48°32' W 123°00'0 0.0
2017-Oct-07 22:23N 48°32' W 123°00'0 0.0
2017-Oct-07 21:59N 48°32' W 123°00'0 0.0
2017-Oct-07 21:20N 48°32' W 123°00'0 0.0
2017-Oct-07 20:59N 48°32' W 123°00'0 0.0
2017-Oct-07 20:30N 48°32' W 123°00'2 4.8
2017-Oct-07 20:00N 48°33' W 122°57'3 6.8
2017-Oct-07 19:31N 48°34' W 122°52'4 7.7
2017-Oct-07 19:01N 48°32' W 122°48'4 8.7
2017-Oct-07 18:31N 48°29' W 122°42'  

Dump ship's entire track history